Detall de PIREP

Printer-friendly versionPDF version

[2017/04/01 08:05:00]
Flight IATA:CT3125
Pilot Number:012
Company ICAO:CAT
Aircraft Type:DC3/A
PAX:0
Aircraft Registration:CARGO
Departing Airport: LEVC
Destination Airport: LFMP
Alternate Airport:LEBL
Online: VATSIM
Route:SOPET B28 BCN R870 DALIN A67 BGR A27 KANIG
Flight Level:F100
No Slew and time accel
No pause
Crash detect
Detect pilot in Cockpit between each 30 and 45 minutes
08:05 Zero fuel Weight: 20225 Lbs, Fuel Weight: 2506 Lbs
08:05 VATSIM:LEVC 010730Z 26006KT 9999 FEW035 14/07 Q1018 NOSIG
08:05 VATSIM:LFMP 010730Z AUTO 30014KT 9999 -RA OVC058/// ///TCU 10/06 Q1017 BECMG 31020G35KT FEW076 OVC092
08:06 Parking Brakes off
08:11 Take-off
08:11 Take off Weight: 22704 Lbs
08:11 Wind: 260º @ 006 Knots Heading: 116º
08:11 POS N39º 29´ 36´´ W000º 29´ 34´´
08:11 Gear Up: 099 Knots
08:23 TOC
08:23 Fuel Weight: 2316 Lb
08:26 Wind:297º@020 Knots Heading: 035º Ground Speed: 165 Knots Altitude 10147 ft
08:41 Wind:310º@024 Knots Heading: 038º Ground Speed: 167 Knots Altitude 10114 ft
08:56 Wind:318º@026 Knots Heading: 038º Ground Speed: 163 Knots Altitude 10072 ft
09:11 Wind:308º@032 Knots Heading: 036º Ground Speed: 168 Knots Altitude 10085 ft
09:26 Wind:305º@022 Knots Heading: 059º Ground Speed: 176 Knots Altitude 10085 ft
09:41 Wind:305º@022 Knots Heading: 330º Ground Speed: 147 Knots Altitude 10085 ft
09:44 TOD
09:44 Fuel Weight: 1406 Lb
09:56 Wind:292º@021 Knots Heading: 346º Ground Speed: 145 Knots Altitude 5633 ft
09:59 Flaps:1 at 137 Knots
09:59 Flaps:2 at 124 Knots
09:59 Gear Down: 116 Knots
09:59 Flaps:3 at 103 Knots
10:06 TouchDown:Rate -118 ft/min Speed: 65 Knots
10:06 VATSIM:LFMP 010930Z AUTO 31012KT 9999 OVC070 11/07 Q1017 TEMPO 30020G30KT SHRA BKN013TCU
10:06 Land
10:06 Wind:309º@012 Knots
10:06 Heading: 343º
10:06 Flight Duration: 01:55
10:06 Landing Weight: 21444 Lbs
10:06 POS N42º 44´ 37´´ E002º 52´ 13´´
10:08 Parking brakes on
10:08 Block to Block Duration: 02:02
10:08 Final Fuel: 1208 Lbls
10:08 Spent Fuel: 1298 Lbls
10:08 Flight Length: 295 NM
10:08 TOD Land Length: 48 NM

Exportar CSV

Powered by Drupal - Modified by Danger4k